Time;durP1;ratioP1;P1;durP2;ratioP2;P2;SDS_P1;SDS_P2;PMS_P1;PMS_P2;Temp;Humidity;BMP_temperature;BMP_pressure;BME280_temperature;BME280_humidity;BME280_pressure;Samples;Min_cycle;Max_cycle;Signal;HPM_P1;HPM_P2
2021/08/31 00:01:48;;;;;;;11.40;7.45;;;;;;;10.28;92.09;91057.59;5016542;28;20093;-86
2021/08/31 00:04:24;;;;;;;14.40;8.38;;;;;;;10.29;92.00;91062.50;5000463;28;20029;-86
2021/08/31 00:07:07;;;;;;;12.18;7.40;;;;;;;10.30;92.09;91063.25;5016614;28;20089;-85
2021/08/31 00:09:47;;;;;;;11.07;7.00;;;;;;;10.31;91.87;91054.34;5031161;28;20030;-86
2021/08/31 00:12:20;;;;;;;12.20;7.22;;;;;;;10.29;91.62;91062.50;5014364;28;20403;-85
2021/08/31 00:14:56;;;;;;;16.88;7.78;;;;;;;10.26;92.02;91057.19;4997812;28;20057;-87
2021/08/31 00:17:35;;;;;;;11.30;6.78;;;;;;;10.33;91.74;91052.19;5014637;28;20026;-85
2021/08/31 00:20:10;;;;;;;13.45;7.90;;;;;;;10.31;91.08;91056.97;5030486;28;20418;-85
2021/08/31 00:22:47;;;;;;;15.23;7.85;;;;;;;10.40;90.58;91059.50;5014683;28;20421;-85
2021/08/31 00:25:22;;;;;;;11.73;7.30;;;;;;;10.45;90.29;91057.41;5013045;28;20033;-86
2021/08/31 00:28:02;;;;;;;12.85;7.32;;;;;;;10.42;90.20;91063.28;4996372;28;20026;-85
2021/08/31 00:30:33;;;;;;;12.02;6.82;;;;;;;10.32;91.63;91058.50;5036171;28;20034;-89
2021/08/31 00:33:09;;;;;;;17.65;9.23;;;;;;;10.34;90.26;91064.13;5029715;28;20482;-85
2021/08/31 00:35:45;;;;;;;17.02;9.60;;;;;;;10.31;90.07;91064.78;5000846;28;20067;-86
2021/08/31 00:38:26;;;;;;;15.65;8.63;;;;;;;10.34;90.20;91064.13;5016096;28;20026;-87
2021/08/31 00:41:06;;;;;;;16.17;9.20;;;;;;;10.23;89.86;91061.16;4998538;28;20049;-85
2021/08/31 00:43:49;;;;;;;15.73;8.75;;;;;;;10.34;89.82;91064.13;5015404;28;20045;-85
2021/08/31 00:46:26;;;;;;;14.35;8.38;;;;;;;10.19;90.71;91059.50;5000112;28;20032;-85
2021/08/31 00:49:05;;;;;;;15.63;8.70;;;;;;;10.26;89.98;91062.38;4982984;28;20032;-85
2021/08/31 00:51:53;;;;;;;14.82;8.52;;;;;;;10.40;89.82;91065.47;4983579;28;20427;-86
2021/08/31 00:54:27;;;;;;;15.73;8.07;;;;;;;10.29;90.18;91065.09;4999333;28;20110;-85
2021/08/31 00:57:07;;;;;;;15.73;8.18;;;;;;;10.23;90.84;91060.38;4983296;28;20398;-86
2021/08/31 00:59:45;;;;;;;12.27;8.15;;;;;;;10.06;91.16;91061.31;4999187;28;20029;-86
2021/08/31 01:02:29;;;;;;;14.35;7.60;;;;;;;10.22;90.55;91053.66;4982807;28;20049;-85
2021/08/31 01:05:09;;;;;;;11.63;7.38;;;;;;;10.10;90.66;91051.00;5014226;28;20029;-85
2021/08/31 01:07:47;;;;;;;12.82;7.50;;;;;;;9.97;91.34;91053.59;4998436;28;20029;-85
2021/08/31 01:10:23;;;;;;;14.50;7.68;;;;;;;9.94;91.34;91048.25;4998559;28;20064;-85
2021/08/31 01:13:09;;;;;;;13.27;8.02;;;;;;;9.90;90.91;91055.94;5011926;28;20053;-85
2021/08/31 01:15:44;;;;;;;12.98;7.35;;;;;;;9.99;90.01;91059.22;4982723;28;20029;-85
2021/08/31 01:18:26;;;;;;;14.35;7.72;;;;;;;9.96;89.43;91059.09;4980662;28;20030;-85
2021/08/31 01:21:01;;;;;;;13.00;7.57;;;;;;;9.93;89.50;91057.91;4965821;28;20034;-85
2021/08/31 01:23:42;;;;;;;13.98;7.70;;;;;;;9.79;89.84;91057.44;4982611;28;20022;-85
2021/08/31 01:26:15;;;;;;;15.35;8.13;;;;;;;9.62;90.30;91049.75;4984055;28;20500;-85
2021/08/31 01:28:55;;;;;;;15.27;8.18;;;;;;;9.53;90.63;91060.97;4964372;28;20034;-85
2021/08/31 01:31:36;;;;;;;17.08;8.38;;;;;;;9.55;90.71;91055.47;4978191;28;20450;-85
2021/08/31 01:34:11;;;;;;;16.48;8.80;;;;;;;9.50;91.02;91059.00;4977980;28;20026;-85
2021/08/31 01:36:48;;;;;;;16.10;8.63;;;;;;;9.53;91.40;91063.56;4995484;28;20023;-86
2021/08/31 01:39:27;;;;;;;17.05;9.00;;;;;;;9.61;90.93;91061.22;4994297;28;20109;-86
2021/08/31 01:42:06;;;;;;;14.52;8.70;;;;;;;9.47;91.39;91072.66;4983031;28;20018;-85
2021/08/31 01:44:39;;;;;;;14.65;8.80;;;;;;;9.48;91.68;91058.56;4983639;28;20022;-86
2021/08/31 01:47:19;;;;;;;18.40;8.90;;;;;;;9.48;91.51;91068.22;4982216;28;20026;-85
2021/08/31 01:49:58;;;;;;;14.20;7.95;;;;;;;9.36;91.26;91068.13;4983680;28;20061;-85
2021/08/31 01:52:41;;;;;;;13.02;7.47;;;;;;;9.31;91.49;91066.47;4999450;28;20096;-86
2021/08/31 01:55:18;;;;;;;18.75;8.77;;;;;;;9.32;91.80;91070.59;4983291;28;20025;-86
2021/08/31 01:57:56;;;;;;;17.90;7.75;;;;;;;9.27;91.97;91068.19;4981875;28;20035;-86
2021/08/31 02:00:29;;;;;;;16.80;8.05;;;;;;;9.28;92.21;91070.47;4966762;28;20026;-85
2021/08/31 02:03:09;;;;;;;13.00;7.90;;;;;;;9.36;91.72;91071.50;4983103;28;20029;-85
2021/08/31 02:05:42;;;;;;;15.25;8.85;;;;;;;9.38;91.96;91069.34;4983812;28;20504;-85
2021/08/31 02:08:20;;;;;;;15.63;8.30;;;;;;;9.38;91.91;91064.13;4998468;28;20022;-87
2021/08/31 02:10:57;;;;;;;14.32;7.80;;;;;;;9.34;91.98;91063.25;4983732;28;20022;-85
2021/08/31 02:13:36;;;;;;;13.57;7.95;;;;;;;9.29;91.75;91055.63;4967795;28;20050;-87
2021/08/31 02:16:09;;;;;;;12.38;7.57;;;;;;;9.25;91.46;91059.94;5014065;28;20438;-85
2021/08/31 02:18:44;;;;;;;17.88;7.60;;;;;;;9.15;91.49;91050.69;4998152;28;20026;-86
2021/08/31 02:21:20;;;;;;;16.08;8.43;;;;;;;9.10;91.98;91059.41;5013699;28;20030;-86
2021/08/31 02:23:57;;;;;;;11.98;7.60;;;;;;;9.08;92.10;91053.78;5015045;28;20084;-86
2021/08/31 02:26:37;;;;;;;14.10;7.63;;;;;;;9.05;92.15;91059.59;4996472;28;20091;-87
2021/08/31 02:29:17;;;;;;;14.90;8.65;;;;;;;9.14;91.97;91059.53;4996743;28;20431;-88
2021/08/31 02:31:55;;;;;;;16.80;8.50;;;;;;;9.07;92.05;91059.28;4981175;28;20034;-87
2021/08/31 02:34:36;;;;;;;13.70;7.68;;;;;;;9.06;91.70;91068.91;4974659;28;20026;-86
2021/08/31 02:37:15;;;;;;;14.05;7.72;;;;;;;9.08;91.68;91061.56;4985009;28;20478;-87
2021/08/31 02:39:54;;;;;;;14.40;7.38;;;;;;;9.07;91.76;91060.03;4984278;28;20057;-86
2021/08/31 02:42:31;;;;;;;13.75;7.95;;;;;;;9.11;91.63;91065.38;5000997;28;20096;-87
2021/08/31 02:45:09;;;;;;;13.13;8.00;;;;;;;9.07;91.71;91056.69;5018090;28;20022;-86
2021/08/31 02:47:45;;;;;;;14.52;8.10;;;;;;;9.06;92.00;91063.72;4999518;28;20026;-85
2021/08/31 02:50:28;;;;;;;14.63;7.82;;;;;;;9.00;92.24;91059.00;4993233;28;20021;-86
2021/08/31 02:53:04;;;;;;;15.93;8.88;;;;;;;9.02;92.36;91070.63;5025530;28;20022;-85
2021/08/31 02:55:42;;;;;;;18.08;8.30;;;;;;;9.03;92.56;91069.53;5010252;28;20018;-86
2021/08/31 02:58:18;;;;;;;14.70;8.30;;;;;;;9.04;92.77;91071.06;5007100;28;20053;-85
2021/08/31 03:03:48;;;;;;;15.20;8.18;;;;;;;9.15;93.18;91081.09;4984166;28;20080;-83
2021/08/31 03:06:28;;;;;;;14.20;7.72;;;;;;;9.28;92.12;91074.91;4979534;28;20022;-85
2021/08/31 03:09:04;;;;;;;13.73;8.05;;;;;;;9.27;92.34;91068.19;4978349;28;20029;-85
2021/08/31 03:11:44;;;;;;;13.35;6.85;;;;;;;9.29;92.16;91066.03;4962598;28;20033;-86
2021/08/31 03:14:26;;;;;;;12.52;7.32;;;;;;;9.24;91.78;91068.81;4978096;28;20029;-85
2021/08/31 03:17:06;;;;;;;14.57;8.27;;;;;;;9.18;91.92;91067.47;4993382;28;20113;-85
2021/08/31 03:19:41;;;;;;;19.73;8.82;;;;;;;9.00;92.43;91070.16;4978015;28;20030;-85
2021/08/31 03:22:11;;;;;;;16.80;9.00;;;;;;;9.00;92.60;91070.16;5012576;28;20034;-85
2021/08/31 03:24:52;;;;;;;14.90;8.18;;;;;;;8.95;93.34;91075.56;5015039;28;20486;-85
2021/08/31 03:27:30;;;;;;;13.93;7.60;;;;;;;9.01;92.86;91071.72;4998284;28;20034;-85
2021/08/31 03:30:08;;;;;;;12.68;8.27;;;;;;;9.00;92.81;91072.75;4997934;28;20030;-85
2021/08/31 03:32:41;;;;;;;17.05;8.30;;;;;;;9.00;92.67;91075.38;4998291;28;20470;-86
2021/08/31 03:35:21;;;;;;;17.42;8.93;;;;;;;9.00;92.74;91080.56;5015225;28;20057;-85
2021/08/31 03:37:59;;;;;;;17.25;8.73;;;;;;;8.98;92.67;91084.56;4998749;28;20033;-85
2021/08/31 03:40:35;;;;;;;15.52;9.13;;;;;;;9.01;92.71;91081.31;5014452;28;20061;-85
2021/08/31 03:43:13;;;;;;;18.88;9.40;;;;;;;9.04;92.57;91080.69;5010187;28;20371;-85
2021/08/31 03:45:51;;;;;;;20.15;9.60;;;;;;;8.94;92.71;91076.63;4981244;28;20026;-84
2021/08/31 03:48:29;;;;;;;16.83;8.60;;;;;;;8.97;93.13;91081.19;4997405;28;20098;-85
2021/08/31 03:51:05;;;;;;;13.73;8.27;;;;;;;9.00;93.02;91080.56;4981846;28;20021;-85
2021/08/31 03:53:44;;;;;;;15.10;8.20;;;;;;;9.03;92.86;91084.38;4965326;28;20022;-85
2021/08/31 03:56:22;;;;;;;14.35;8.32;;;;;;;9.06;92.87;91081.91;4984855;28;20021;-88
2021/08/31 03:58:59;;;;;;;13.80;7.93;;;;;;;9.13;92.20;91083.28;4978396;28;20054;-85
2021/08/31 04:01:39;;;;;;;15.93;7.80;;;;;;;9.14;92.10;91075.13;4964559;28;20026;-85
2021/08/31 04:04:14;;;;;;;15.05;8.10;;;;;;;9.17;92.38;91082.31;4981916;28;20049;-86
2021/08/31 04:06:51;;;;;;;15.45;8.20;;;;;;;9.18;92.72;91080.47;4980994;28;20018;-84
2021/08/31 04:09:30;;;;;;;13.07;7.53;;;;;;;9.14;93.23;91079.59;4965476;28;20030;-85
2021/08/31 04:12:08;;;;;;;14.18;8.00;;;;;;;9.22;93.29;91087.34;4971905;28;20537;-85
2021/08/31 04:14:47;;;;;;;12.38;7.28;;;;;;;9.36;92.33;91084.50;5089515;22;20519;-89
2021/08/31 04:17:25;;;;;;;12.35;6.60;;;;;;;9.26;92.45;91088.25;5021847;28;20033;-89
2021/08/31 04:20:04;;;;;;;13.30;7.35;;;;;;;9.30;92.17;91080.56;5020944;28;20024;-89
2021/08/31 04:22:43;;;;;;;16.77;7.90;;;;;;;9.21;92.29;91077.25;5004937;28;20025;-89
2021/08/31 04:25:13;;;;;;;16.58;7.50;;;;;;;9.18;92.43;91090.88;5017384;28;20033;-89
2021/08/31 04:27:49;;;;;;;15.77;8.30;;;;;;;9.15;92.67;91084.47;5013361;28;20032;-89
2021/08/31 04:30:27;;;;;;;15.40;8.27;;;;;;;9.11;93.02;91091.38;4997487;28;20025;-90
2021/08/31 04:33:03;;;;;;;14.10;7.13;;;;;;;9.17;93.18;91097.91;4997591;28;20021;-90
2021/08/31 04:35:39;;;;;;;13.90;7.80;;;;;;;9.16;93.02;91091.19;4998876;28;20025;-89
2021/08/31 04:38:17;;;;;;;12.25;7.93;;;;;;;9.24;93.13;91097.44;4997562;28;20030;-90
2021/08/31 04:40:56;;;;;;;16.85;7.95;;;;;;;9.24;92.84;91092.22;5013900;28;20121;-89
2021/08/31 04:43:29;;;;;;;13.35;7.72;;;;;;;9.27;92.71;91094.97;5000923;28;20029;-88
2021/08/31 04:46:09;;;;;;;16.58;7.47;;;;;;;9.30;92.46;91098.78;4985281;28;20029;-89
2021/08/31 04:48:44;;;;;;;13.80;8.07;;;;;;;9.29;92.69;91097.22;4985471;28;20036;-89
2021/08/31 04:51:21;;;;;;;13.30;7.93;;;;;;;9.33;92.58;91098.16;4984681;28;20022;-90
2021/08/31 04:53:54;;;;;;;12.65;7.65;;;;;;;9.34;92.74;91099.66;5001076;28;20025;-90
2021/08/31 04:56:31;;;;;;;13.07;7.18;;;;;;;9.35;92.41;91098.59;4984444;28;20025;-89
2021/08/31 04:59:09;;;;;;;12.50;7.57;;;;;;;9.37;92.30;91095.69;4985057;28;20025;-89
2021/08/31 05:01:47;;;;;;;12.68;7.40;;;;;;;9.41;92.08;91092.13;4984566;28;20022;-89
2021/08/31 05:04:28;;;;;;;12.50;7.82;;;;;;;9.34;92.47;91090.03;5001251;28;20030;-90
2021/08/31 05:07:03;;;;;;;14.45;8.50;;;;;;;9.39;92.55;91090.91;5001959;28;20025;-89
2021/08/31 05:09:45;;;;;;;13.55;7.45;;;;;;;9.39;92.74;91093.50;4984321;28;20488;-89
2021/08/31 05:12:26;;;;;;;13.00;7.70;;;;;;;9.42;92.60;91091.03;5010872;28;20029;-90
2021/08/31 05:15:08;;;;;;;12.43;7.60;;;;;;;9.41;92.46;91094.72;4997008;28;20026;-89
2021/08/31 05:17:45;;;;;;;13.43;7.13;;;;;;;9.40;92.34;91098.41;4981363;28;20025;-89
2021/08/31 05:20:21;;;;;;;12.40;6.75;;;;;;;9.44;92.37;91090.75;4980414;28;20506;-89
2021/08/31 05:22:51;;;;;;;12.82;7.55;;;;;;;9.48;92.40;91094.22;4998983;28;20163;-89
2021/08/31 05:25:26;;;;;;;14.27;7.70;;;;;;;9.45;92.51;91100.81;5032209;28;20033;-89
2021/08/31 05:28:02;;;;;;;14.27;8.15;;;;;;;9.46;92.25;91094.53;4996255;28;20030;-88
2021/08/31 05:30:37;;;;;;;13.98;8.70;;;;;;;9.67;91.80;91099.75;4996610;28;20026;-89
2021/08/31 05:33:15;;;;;;;12.90;7.88;;;;;;;9.66;91.51;91105.28;4996776;28;20105;-90
2021/08/31 05:35:53;;;;;;;16.42;7.25;;;;;;;9.63;91.93;91111.13;4980849;28;20021;-89
2021/08/31 05:38:28;;;;;;;12.65;6.50;;;;;;;9.67;92.06;91106.78;4997155;28;20157;-88
2021/08/31 05:41:09;;;;;;;11.25;7.07;;;;;;;9.85;91.66;91113.41;5012286;28;20053;-89
2021/08/31 05:43:39;;;;;;;13.32;7.13;;;;;;;9.87;92.10;91119.06;4979166;28;20026;-90
2021/08/31 05:46:13;;;;;;;16.05;7.63;;;;;;;9.84;92.29;91111.13;4979650;28;20037;-89
2021/08/31 05:48:44;;;;;;;9.23;5.85;;;;;;;9.97;91.71;91116.06;4996459;28;20044;-89
2021/08/31 05:51:20;;;;;;;10.65;7.00;;;;;;;10.16;90.81;91112.25;4979516;28;20038;-89
2021/08/31 05:53:54;;;;;;;13.05;7.00;;;;;;;10.13;90.87;91115.47;4995553;28;20029;-89
2021/08/31 05:56:29;;;;;;;10.07;6.63;;;;;;;10.16;91.05;91112.25;4995961;28;20053;-89
2021/08/31 05:59:01;;;;;;;11.10;6.68;;;;;;;10.23;90.95;91109.88;4995430;28;20029;-89
2021/08/31 06:01:36;;;;;;;9.80;6.55;;;;;;;10.31;90.96;91118.72;4996022;28;20030;-90
2021/08/31 06:04:11;;;;;;;12.52;7.70;;;;;;;10.28;91.61;91117.50;4979277;28;20037;-89
2021/08/31 06:06:44;;;;;;;16.02;8.35;;;;;;;10.32;91.64;91117.63;4979470;28;20036;-89
2021/08/31 06:09:20;;;;;;;11.70;7.32;;;;;;;10.41;90.55;91128.75;4998699;28;20025;-89
2021/08/31 06:11:58;;;;;;;13.90;7.65;;;;;;;10.46;90.37;91121.50;4983284;28;20398;-89
2021/08/31 06:14:37;;;;;;;14.55;7.65;;;;;;;10.46;90.83;91129.31;5015961;28;20025;-89
2021/08/31 06:17:13;;;;;;;12.38;7.25;;;;;;;10.40;90.11;91127.97;4983234;28;20028;-87
2021/08/31 06:19:47;;;;;;;13.75;7.15;;;;;;;10.42;90.61;91125.81;5014450;28;20034;-87
2021/08/31 06:22:23;;;;;;;13.38;7.10;;;;;;;10.46;88.96;91134.53;5015258;28;20474;-87
2021/08/31 06:25:01;;;;;;;13.00;7.07;;;;;;;10.55;89.21;91124.00;4998855;28;20489;-87
2021/08/31 06:27:41;;;;;;;12.60;7.90;;;;;;;10.65;89.44;91141.09;5003230;28;20036;-87
2021/08/31 06:30:19;;;;;;;14.73;8.55;;;;;;;10.71;88.77;91135.34;5018638;28;20025;-89
2021/08/31 06:32:57;;;;;;;12.32;7.53;;;;;;;10.67;88.49;91138.91;5002108;28;20024;-87
2021/08/31 06:35:32;;;;;;;12.05;7.45;;;;;;;10.86;87.65;91144.38;5001446;28;20028;-87
2021/08/31 06:38:00;;;;;;;11.52;6.72;;;;;;;10.78;86.88;91147.84;5015874;28;20067;-87
2021/08/31 06:40:33;;;;;;;13.10;7.38;;;;;;;10.63;87.66;91146.59;4988983;28;20022;-88
2021/08/31 06:43:08;;;;;;;10.30;6.70;;;;;;;10.57;87.99;91149.75;4986319;28;20048;-88
2021/08/31 06:45:33;;;;;;;12.38;7.43;;;;;;;10.52;87.99;91148.84;4982117;28;20114;-88
2021/08/31 06:48:09;;;;;;;13.25;7.50;;;;;;;10.54;87.68;91158.97;5000795;28;20025;-86
2021/08/31 06:50:41;;;;;;;14.10;7.30;;;;;;;10.66;87.21;91153.78;4981903;28;20048;-86
2021/08/31 06:53:18;;;;;;;9.73;6.30;;;;;;;10.76;86.37;91153.38;4983459;28;20032;-87
2021/08/31 06:55:55;;;;;;;11.38;6.60;;;;;;;10.72;87.62;91164.78;4985978;28;20029;-87
2021/08/31 06:58:37;;;;;;;13.57;6.47;;;;;;;10.96;85.22;91167.44;5018164;28;20029;-86
2021/08/31 07:01:16;;;;;;;10.15;6.13;;;;;;;10.86;86.49;91175.66;5002923;28;20029;-86
2021/08/31 07:03:54;;;;;;;11.15;6.45;;;;;;;10.80;86.08;91171.75;5022190;28;20042;-87
2021/08/31 07:06:26;;;;;;;11.32;6.35;;;;;;;10.75;86.21;91169.34;5020840;28;20555;-87
2021/08/31 07:08:53;;;;;;;13.23;6.30;;;;;;;10.78;86.61;91168.72;4995853;28;20030;-87
2021/08/31 07:11:18;;;;;;;11.00;6.07;;;;;;;10.85;84.98;91168.16;5013125;28;20030;-86
2021/08/31 07:13:54;;;;;;;14.25;6.40;;;;;;;10.93;85.43;91167.31;4981743;28;20482;-87
2021/08/31 07:16:20;;;;;;;10.68;5.70;;;;;;;10.97;84.58;91171.56;4996128;28;20040;-87
2021/08/31 07:18:45;;;;;;;8.63;5.38;;;;;;;11.18;83.95;91178.56;4997900;28;20371;-86
2021/08/31 07:21:10;;;;;;;11.50;5.68;;;;;;;11.18;83.78;91186.38;4997181;28;20030;-88
2021/08/31 07:23:36;;;;;;;10.02;5.85;;;;;;;11.24;83.45;91185.09;4997789;28;20467;-87
2021/08/31 07:26:08;;;;;;;9.02;5.80;;;;;;;11.24;84.02;91180.63;5003177;28;20026;-88
2021/08/31 07:28:39;;;;;;;11.30;6.70;;;;;;;11.35;85.65;91188.03;5001187;28;20021;-87
2021/08/31 07:31:05;;;;;;;12.48;7.43;;;;;;;11.42;83.89;91183.78;5001572;28;20064;-88
2021/08/31 07:33:35;;;;;;;11.18;6.72;;;;;;;11.24;83.77;91188.47;4997898;28;20061;-88
2021/08/31 07:36:07;;;;;;;12.20;7.20;;;;;;;11.37;84.47;91194.44;4981623;28;20486;-88
2021/08/31 07:38:35;;;;;;;14.00;7.18;;;;;;;11.37;83.96;91189.22;4981016;28;20034;-88
2021/08/31 07:41:01;;;;;;;13.82;6.85;;;;;;;11.45;84.49;91192.81;4986009;28;20064;-89
2021/08/31 07:43:27;;;;;;;12.27;6.53;;;;;;;11.37;83.46;91191.81;4990032;28;20027;-89
2021/08/31 07:45:52;;;;;;;17.77;8.75;;;;;;;11.52;82.86;91193.03;4983970;28;20021;-88
2021/08/31 07:48:19;;;;;;;13.75;7.18;;;;;;;11.36;83.76;91195.53;4984798;28;20029;-88
2021/08/31 07:50:45;;;;;;;9.55;5.90;;;;;;;11.53;82.46;91194.56;4983988;28;20032;-87
2021/08/31 07:53:11;;;;;;;11.48;6.30;;;;;;;11.63;83.37;91190.75;5000026;28;20029;-88
2021/08/31 07:55:38;;;;;;;11.15;6.88;;;;;;;11.65;83.09;91199.78;5034030;28;20088;-87
2021/08/31 07:58:05;;;;;;;11.75;6.28;;;;;;;11.37;82.84;91202.25;5000885;28;20033;-87
2021/08/31 08:00:31;;;;;;;11.90;5.95;;;;;;;11.43;82.17;91206.19;5009414;28;20025;-87
2021/08/31 08:02:56;;;;;;;12.57;6.57;;;;;;;11.42;83.47;91209.13;5004662;28;20017;-87
2021/08/31 08:05:25;;;;;;;10.40;6.18;;;;;;;11.38;84.43;91211.63;5003571;28;20024;-87
2021/08/31 08:07:52;;;;;;;11.95;5.97;;;;;;;11.51;83.61;91215.00;5002716;28;20029;-87
2021/08/31 08:10:19;;;;;;;11.55;5.97;;;;;;;11.40;83.26;91212.06;5020648;28;20493;-88
2021/08/31 08:12:45;;;;;;;11.05;5.80;;;;;;;11.33;83.03;91209.22;5018471;28;20033;-88
2021/08/31 08:15:13;;;;;;;10.70;5.70;;;;;;;11.34;84.24;91215.97;4999497;28;20029;-88
2021/08/31 08:17:40;;;;;;;11.52;6.05;;;;;;;11.32;83.45;91212.91;5019915;28;20022;-91
2021/08/31 08:20:08;;;;;;;9.48;6.13;;;;;;;11.34;84.85;91215.97;5005461;28;20120;-90
2021/08/31 08:22:36;;;;;;;11.23;5.97;;;;;;;11.64;84.84;91215.78;4989527;28;20017;-91
2021/08/31 08:25:05;;;;;;;10.15;5.32;;;;;;;11.56;83.83;91225.22;4987620;28;20099;-91
2021/08/31 08:27:38;;;;;;;9.13;5.47;;;;;;;11.63;83.73;91220.22;4988403;28;20025;-91
2021/08/31 08:30:12;;;;;;;10.05;5.85;;;;;;;11.79;84.27;91219.56;5020280;28;20029;-90
2021/08/31 08:32:39;;;;;;;9.70;5.20;;;;;;;11.83;81.55;91221.19;5001761;28;20034;-91
2021/08/31 08:35:10;;;;;;;12.13;5.65;;;;;;;11.87;80.52;91216.09;5001405;28;20124;-91
2021/08/31 08:37:40;;;;;;;9.25;5.18;;;;;;;11.93;81.80;91220.78;5002745;28;20025;-91
2021/08/31 08:40:08;;;;;;;10.63;5.43;;;;;;;11.90;80.49;91218.81;5002769;28;20029;-91
2021/08/31 08:42:40;;;;;;;12.52;5.97;;;;;;;12.10;81.08;91219.78;5004226;28;20088;-91
2021/08/31 08:45:09;;;;;;;10.73;5.95;;;;;;;12.15;81.03;91218.78;4988638;28;20026;-90
2021/08/31 08:47:39;;;;;;;9.70;5.53;;;;;;;12.27;81.39;91221.41;4988847;28;20032;-90
2021/08/31 08:50:08;;;;;;;9.65;5.70;;;;;;;12.13;81.38;91218.38;5003340;28;20025;-91
2021/08/31 08:52:36;;;;;;;10.50;5.35;;;;;;;12.18;79.67;91215.53;4989583;28;20065;-90
2021/08/31 08:55:11;;;;;;;10.30;5.22;;;;;;;12.18;79.65;91223.38;4990515;28;20022;-91
2021/08/31 08:57:40;;;;;;;11.25;6.53;;;;;;;12.25;78.30;91218.34;5000786;28;20059;-91
2021/08/31 09:00:07;;;;;;;9.27;5.53;;;;;;;12.34;79.43;91220.84;4984083;28;20030;-91
2021/08/31 09:02:45;;;;;;;10.63;5.68;;;;;;;12.30;79.46;91222.59;4997401;28;20477;-91
2021/08/31 09:05:13;;;;;;;12.98;6.60;;;;;;;12.23;77.51;91223.16;5022544;28;20029;-91
2021/08/31 09:11:26;;;;;;;10.20;6.18;;;;;;;12.49;78.22;91232.44;5058436;28;20032;-91
2021/08/31 09:13:52;;;;;;;9.60;5.80;;;;;;;12.40;79.19;91233.34;5029197;28;20021;-95
2021/08/31 09:16:22;;;;;;;10.55;6.10;;;;;;;12.42;78.56;91230.41;5021034;28;20039;-92
2021/08/31 09:18:52;;;;;;;11.25;6.30;;;;;;;12.47;78.07;91227.53;5021855;28;20499;-91
2021/08/31 09:21:24;;;;;;;10.35;5.95;;;;;;;12.31;77.87;91235.31;5039634;28;20033;-90
2021/08/31 09:23:51;;;;;;;10.60;6.00;;;;;;;12.13;77.28;91232.19;5023142;28;20120;-91
2021/08/31 09:26:18;;;;;;;10.65;6.47;;;;;;;12.50;77.43;91242.56;5023245;28;20445;-91
2021/08/31 09:28:45;;;;;;;12.30;6.50;;;;;;;12.55;77.36;91233.75;5007304;28;20097;-91
2021/08/31 09:31:17;;;;;;;10.20;6.07;;;;;;;12.67;77.33;91238.91;5006635;28;20028;-92
2021/08/31 09:33:44;;;;;;;11.95;6.25;;;;;;;12.75;76.48;91237.25;5040316;28;20499;-91
2021/08/31 09:36:20;;;;;;;12.07;6.93;;;;;;;12.66;74.35;91246.00;5038977;28;20029;-90
2021/08/31 09:38:50;;;;;;;11.27;6.82;;;;;;;12.76;75.60;91244.78;5006229;28;20025;-91
2021/08/31 09:41:29;;;;;;;10.05;6.13;;;;;;;12.75;74.76;91248.47;5019718;28;20048;-91
2021/08/31 09:44:01;;;;;;;13.23;5.78;;;;;;;12.79;73.65;91249.34;5020315;28;20024;-90
2021/08/31 09:46:59;;;;;;;10.30;5.75;;;;;;;12.82;73.91;91243.44;5036366;28;20373;-91
2021/08/31 09:49:39;;;;;;;12.57;6.05;;;;;;;12.90;74.96;91247.78;4966260;28;20021;-89
2021/08/31 09:52:14;;;;;;;10.75;6.03;;;;;;;13.18;72.32;91233.91;4966039;28;20036;-91
2021/08/31 09:54:47;;;;;;;9.98;5.65;;;;;;;13.26;70.67;91234.88;4980121;28;20029;-90
2021/08/31 09:57:34;;;;;;;17.08;6.40;;;;;;;13.17;69.76;91232.38;4980520;28;20112;-90
2021/08/31 10:00:03;;;;;;;11.75;5.85;;;;;;;13.11;72.11;91238.97;4964909;28;20033;-91
2021/08/31 10:02:30;;;;;;;14.73;6.63;;;;;;;13.07;70.40;91238.88;4966614;28;20025;-92
2021/08/31 10:04:56;;;;;;;12.73;5.93;;;;;;;13.14;72.76;91235.66;4997750;28;20025;-91
2021/08/31 10:07:22;;;;;;;8.40;5.38;;;;;;;13.14;73.42;91239.06;4964474;28;20060;-90
2021/08/31 10:09:50;;;;;;;10.50;5.60;;;;;;;13.32;72.71;91242.16;4964280;28;20029;-91
2021/08/31 10:12:18;;;;;;;10.15;6.07;;;;;;;13.19;72.41;91245.16;4964279;28;20138;-89
2021/08/31 10:14:46;;;;;;;10.13;6.03;;;;;;;13.22;72.57;91245.22;4996530;22;20135;-83
2021/08/31 10:17:16;;;;;;;10.80;6.57;;;;;;;13.23;72.96;91248.59;5035280;28;20071;-85
2021/08/31 10:19:42;;;;;;;10.43;6.45;;;;;;;13.32;72.45;91249.22;5019689;28;20029;-87
2021/08/31 10:22:15;;;;;;;11.60;5.63;;;;;;;13.57;71.17;91245.38;5020229;28;20020;-89
2021/08/31 10:24:45;;;;;;;10.32;6.32;;;;;;;13.54;71.05;91240.81;5018138;28;20449;-87
2021/08/31 10:27:39;;;;;;;9.93;5.43;;;;;;;13.49;71.48;91248.16;4983260;28;20567;-85
2021/08/31 10:30:28;;;;;;;11.50;5.90;;;;;;;13.65;70.70;91241.06;5019333;28;20029;-88
2021/08/31 10:33:02;;;;;;;9.68;5.60;;;;;;;13.59;70.78;91237.19;5016231;28;20033;-87
2021/08/31 10:35:39;;;;;;;10.32;5.53;;;;;;;13.85;71.06;91250.53;5000361;28;20031;-87
2021/08/31 10:38:14;;;;;;;11.13;5.80;;;;;;;13.83;72.28;91246.72;5016003;28;20098;-87
2021/08/31 10:40:46;;;;;;;10.00;5.75;;;;;;;14.05;71.58;91247.97;4984336;28;20037;-86
2021/08/31 10:43:22;;;;;;;11.57;5.90;;;;;;;14.02;69.33;91253.88;5016916;28;20025;-87
2021/08/31 10:45:54;;;;;;;10.52;5.60;;;;;;;13.82;70.00;91256.44;4999747;28;20029;-87
2021/08/31 10:48:29;;;;;;;8.57;5.70;;;;;;;14.00;70.47;91259.47;4996264;28;20577;-87
2021/08/31 10:51:00;;;;;;;10.98;6.20;;;;;;;14.01;69.88;91250.50;5035263;28;20024;-87
2021/08/31 10:53:45;;;;;;;11.43;5.60;;;;;;;14.13;70.59;91249.63;5019231;28;20099;-87
2021/08/31 10:56:26;;;;;;;10.93;5.85;;;;;;;14.09;71.49;91254.78;5019614;28;20021;-86
2021/08/31 10:59:01;;;;;;;10.77;6.35;;;;;;;14.24;70.32;91255.09;5053484;28;20032;-86
2021/08/31 11:01:45;;;;;;;10.57;5.75;;;;;;;14.10;69.65;91263.44;5019010;28;20025;-86
2021/08/31 11:04:30;;;;;;;8.93;4.95;;;;;;;14.00;68.50;91258.72;5003929;28;20025;-87
2021/08/31 11:07:01;;;;;;;8.95;5.20;;;;;;;13.88;66.63;91260.31;5002237;28;20025;-86
2021/08/31 11:09:31;;;;;;;8.95;4.90;;;;;;;14.03;66.05;91264.03;5002586;28;20536;-87
2021/08/31 11:12:10;;;;;;;8.82;4.97;;;;;;;14.23;68.28;91264.84;5002260;28;20540;-87
2021/08/31 11:14:45;;;;;;;9.20;5.57;;;;;;;14.20;69.75;91270.00;5015060;28;20031;-87
2021/08/31 11:17:32;;;;;;;9.55;5.60;;;;;;;14.15;67.97;91271.03;5014868;28;20082;-87
2021/08/31 11:20:16;;;;;;;10.30;5.18;;;;;;;13.87;68.21;91269.28;5014858;28;20067;-87
2021/08/31 11:22:48;;;;;;;9.00;4.88;;;;;;;13.87;69.95;91266.66;4999087;28;20060;-87
2021/08/31 11:25:28;;;;;;;9.50;5.47;;;;;;;13.88;71.41;91270.78;4999409;28;20064;-87
2021/08/31 11:28:02;;;;;;;8.10;5.28;;;;;;;13.80;70.95;91273.59;4999482;28;20124;-87
2021/08/31 11:30:54;;;;;;;11.57;6.40;;;;;;;13.42;71.44;91274.16;5031612;28;20447;-86
2021/08/31 11:33:25;;;;;;;13.20;6.20;;;;;;;13.46;73.62;91277.63;5014639;28;20410;-87
2021/08/31 11:36:03;;;;;;;14.63;6.32;;;;;;;13.35;73.71;91272.88;5015181;28;20672;-86
2021/08/31 11:38:41;;;;;;;11.73;6.25;;;;;;;13.31;74.84;91274.66;5016180;28;20378;-87
2021/08/31 11:41:33;;;;;;;9.50;6.20;;;;;;;13.25;76.05;91272.59;5015724;28;20032;-87
2021/08/31 11:44:18;;;;;;;10.20;6.32;;;;;;;13.16;77.60;91283.19;5003256;28;20026;-87
2021/08/31 11:46:48;;;;;;;11.38;6.80;;;;;;;13.12;77.31;91282.34;5033315;28;20057;-86
2021/08/31 11:49:24;;;;;;;11.65;7.38;;;;;;;12.83;78.45;91286.06;4985860;28;20025;-86
2021/08/31 11:52:14;;;;;;;11.10;6.93;;;;;;;12.85;77.94;91284.63;5019357;28;20086;-86
2021/08/31 11:54:50;;;;;;;9.90;6.28;;;;;;;13.10;75.79;91292.38;5003170;28;20128;-86
2021/08/31 11:57:18;;;;;;;13.80;6.30;;;;;;;13.14;76.27;91288.00;5002925;28;20021;-85
2021/08/31 11:59:53;;;;;;;12.98;7.25;;;;;;;12.95;77.74;91290.47;5017821;28;20025;-86
2021/08/31 12:02:38;;;;;;;;;;;;;;;12.94;77.75;91292.34;5002907;28;20096;-86
2021/08/31 12:05:09;;;;;;;11.80;6.85;;;;;;;13.17;76.59;91289.94;5034182;28;19919;-86
2021/08/31 12:07:42;;;;;;;12.25;6.70;;;;;;;13.39;75.75;91284.22;5018722;28;20029;-87
2021/08/31 12:10:16;;;;;;;13.00;6.85;;;;;;;13.39;77.14;91286.06;5018065;28;20029;-86
2021/08/31 12:12:45;;;;;;;13.02;6.35;;;;;;;13.27;75.90;91284.25;5002663;28;20124;-86